Time;durP1;ratioP1;P1;durP2;ratioP2;P2;SDS_P1;SDS_P2;PMS_P1;PMS_P2;Temp;Humidity;BMP_temperature;BMP_pressure;BME280_temperature;BME280_humidity;BME280_pressure;Samples;Min_cycle;Max_cycle;Signal;HPM_P1;HPM_P2
2023/09/27 00:00:34;;;;;;;20.23;17.00;;;14.60;99.90;;;;;;5005306;28;20191;-52
2023/09/27 00:02:59;;;;;;;19.20;17.20;;;14.60;99.90;;;;;;5005095;28;20504;-52
2023/09/27 00:05:25;;;;;;;20.17;18.07;;;14.60;99.90;;;;;;5002866;28;20677;-51
2023/09/27 00:07:54;;;;;;;21.40;19.10;;;14.50;99.90;;;;;;5000015;28;20230;-52
2023/09/27 00:10:19;;;;;;;21.33;18.03;;;14.50;99.90;;;;;;5000985;28;20192;-50
2023/09/27 00:12:45;;;;;;;20.77;18.53;;;14.50;99.90;;;;;;4999838;28;20440;-51
2023/09/27 00:15:12;;;;;;;21.87;18.30;;;14.50;99.90;;;;;;5000884;28;20216;-51
2023/09/27 00:17:38;;;;;;;22.70;18.83;;;14.50;99.90;;;;;;5008405;28;20192;-51
2023/09/27 00:20:13;;;;;;;22.50;19.20;;;14.40;99.90;;;;;;5004784;28;20959;-50
2023/09/27 00:22:39;;;;;;;20.10;18.00;;;14.40;99.90;;;;;;5002374;28;20483;-52
2023/09/27 00:25:08;;;;;;;25.10;18.87;;;14.40;99.90;;;;;;4999825;28;20503;-51
2023/09/27 00:27:34;;;;;;;24.17;19.00;;;14.40;99.90;;;;;;4998592;28;20447;-52
2023/09/27 00:30:00;;;;;;;24.87;18.70;;;14.40;99.90;;;;;;4999388;28;20451;-51
2023/09/27 00:32:25;;;;;;;21.07;18.87;;;14.30;99.90;;;;;;5000367;28;20439;-51
2023/09/27 00:34:51;;;;;;;21.47;19.20;;;14.30;99.90;;;;;;5002525;28;20641;-50
2023/09/27 00:37:16;;;;;;;22.03;19.63;;;14.30;99.90;;;;;;5006520;28;20194;-51
2023/09/27 00:39:42;;;;;;;22.00;19.43;;;14.30;99.90;;;;;;5000804;28;20193;-51
2023/09/27 00:42:07;;;;;;;23.37;20.30;;;14.30;99.90;;;;;;4997614;28;20181;-51
2023/09/27 00:44:34;;;;;;;23.67;19.93;;;14.20;99.90;;;;;;5000386;28;20188;-50
2023/09/27 00:47:01;;;;;;;22.87;18.77;;;14.20;99.90;;;;;;4999020;28;20199;-50
2023/09/27 00:49:26;;;;;;;22.47;20.03;;;14.20;99.90;;;;;;5003805;28;20442;-51
2023/09/27 00:51:52;;;;;;;25.23;21.83;;;14.20;99.90;;;;;;5005715;28;20519;-53
2023/09/27 00:54:19;;;;;;;26.80;21.93;;;14.20;99.90;;;;;;5003304;28;20223;-51
2023/09/27 00:56:47;;;;;;;30.20;21.70;;;14.10;99.90;;;;;;5002814;28;20558;-51
2023/09/27 00:59:14;;;;;;;24.03;21.17;;;14.20;99.90;;;;;;4998696;28;20436;-50
2023/09/27 01:01:41;;;;;;;27.77;23.70;;;14.10;99.90;;;;;;5002061;28;20852;-51
2023/09/27 01:04:08;;;;;;;25.40;21.17;;;14.10;99.90;;;;;;4999237;28;20519;-50
2023/09/27 01:06:34;;;;;;;26.17;22.17;;;14.10;99.90;;;;;;5004555;28;20540;-51
2023/09/27 01:08:59;;;;;;;29.20;22.87;;;14.10;99.90;;;;;;5003676;28;20450;-49
2023/09/27 01:11:26;;;;;;;29.50;22.70;;;14.10;99.90;;;;;;5005485;28;20505;-51
2023/09/27 01:13:52;;;;;;;26.93;22.47;;;14.10;99.90;;;;;;5003842;28;20550;-50
2023/09/27 01:16:17;;;;;;;26.50;22.80;;;14.00;99.90;;;;;;5001783;28;20443;-51
2023/09/27 01:18:43;;;;;;;24.83;21.93;;;14.00;99.90;;;;;;5000458;28;20606;-50
2023/09/27 01:21:08;;;;;;;27.30;23.87;;;14.00;99.90;;;;;;5002940;28;20186;-51
2023/09/27 01:23:38;;;;;;;27.00;23.50;;;14.00;99.90;;;;;;5006979;28;20277;-51
2023/09/27 01:26:07;;;;;;;26.27;22.63;;;14.00;99.90;;;;;;5003204;28;20216;-51
2023/09/27 01:28:35;;;;;;;26.23;23.37;;;14.00;99.90;;;;;;5001608;28;20447;-50
2023/09/27 01:31:00;;;;;;;29.47;23.23;;;13.90;99.90;;;;;;5000182;28;20454;-51
2023/09/27 01:33:26;;;;;;;29.17;23.40;;;13.90;99.90;;;;;;5003446;28;20443;-51
2023/09/27 01:35:53;;;;;;;27.20;22.90;;;13.90;99.90;;;;;;5000678;28;20206;-51
2023/09/27 01:38:19;;;;;;;27.33;22.20;;;13.90;99.90;;;;;;4999279;28;20683;-51
2023/09/27 01:40:45;;;;;;;27.30;22.60;;;13.80;99.90;;;;;;5003625;28;20438;-50
2023/09/27 01:43:11;;;;;;;30.13;23.77;;;13.80;99.90;;;;;;5004016;28;20661;-51
2023/09/27 01:45:37;;;;;;;24.07;21.30;;;13.70;99.90;;;;;;5003649;28;20510;-50
2023/09/27 01:48:04;;;;;;;26.50;22.43;;;13.70;99.90;;;;;;4998182;28;20476;-50
2023/09/27 01:50:33;;;;;;;27.33;22.23;;;13.70;99.90;;;;;;5002684;28;20505;-50
2023/09/27 01:52:59;;;;;;;24.27;21.20;;;13.70;99.90;;;;;;5004166;28;20934;-50
2023/09/27 01:55:24;;;;;;;25.53;21.60;;;13.60;99.90;;;;;;5001465;28;20446;-50
2023/09/27 01:57:50;;;;;;;23.17;20.47;;;13.60;99.90;;;;;;5005865;28;20468;-51
2023/09/27 02:00:17;;;;;;;24.47;21.63;;;13.50;99.90;;;;;;5000531;28;20202;-50
2023/09/27 02:02:44;;;;;;;28.33;21.90;;;13.40;99.90;;;;;;4999685;28;20196;-51
2023/09/27 02:05:11;;;;;;;25.07;21.50;;;13.40;99.90;;;;;;4998174;28;20470;-50
2023/09/27 02:07:40;;;;;;;29.20;23.10;;;13.40;99.90;;;;;;4999804;28;20474;-50
2023/09/27 02:10:10;;;;;;;26.33;22.63;;;13.30;99.90;;;;;;5003296;28;20439;-51
2023/09/27 02:12:36;;;;;;;27.53;22.03;;;13.30;99.90;;;;;;5005844;28;20586;-51
2023/09/27 02:15:04;;;;;;;30.20;23.37;;;13.20;99.90;;;;;;5008969;28;20903;-51
2023/09/27 02:17:29;;;;;;;30.27;23.37;;;13.10;99.90;;;;;;5005205;28;20461;-49
2023/09/27 02:19:55;;;;;;;28.60;22.63;;;13.20;99.90;;;;;;4998721;28;20477;-50
2023/09/27 02:22:21;;;;;;;29.40;22.10;;;13.10;99.90;;;;;;5002203;28;20637;-50
2023/09/27 02:24:47;;;;;;;30.97;22.27;;;13.00;99.90;;;;;;5003117;28;20196;-50
2023/09/27 02:27:14;;;;;;;30.40;23.03;;;13.00;99.90;;;;;;4999756;28;20963;-51
2023/09/27 02:29:41;;;;;;;27.40;22.50;;;13.00;99.90;;;;;;5008827;28;21008;-49
2023/09/27 02:32:07;;;;;;;30.13;23.77;;;12.90;99.90;;;;;;5009039;28;20472;-51
2023/09/27 02:34:35;;;;;;;29.47;22.40;;;12.90;99.90;;;;;;5002771;28;20449;-50
2023/09/27 02:37:01;;;;;;;26.23;21.37;;;12.90;99.90;;;;;;5002662;28;20438;-50
2023/09/27 02:39:28;;;;;;;26.83;21.33;;;12.80;99.90;;;;;;5004696;28;20601;-50
2023/09/27 02:41:56;;;;;;;26.57;22.13;;;12.80;99.90;;;;;;5005713;28;20439;-51
2023/09/27 02:44:22;;;;;;;30.37;23.30;;;12.70;99.90;;;;;;5007082;28;20453;-50
2023/09/27 02:46:48;;;;;;;27.53;22.90;;;12.70;99.90;;;;;;5006505;28;20827;-50
2023/09/27 02:49:14;;;;;;;26.93;21.40;;;12.70;99.90;;;;;;5007133;28;20682;-49
2023/09/27 02:51:40;;;;;;;26.87;22.70;;;12.70;99.90;;;;;;5004195;28;20466;-50
2023/09/27 02:54:06;;;;;;;29.93;23.63;;;12.70;99.90;;;;;;5000612;28;20328;-50
2023/09/27 02:56:31;;;;;;;30.10;20.97;;;12.70;99.90;;;;;;5004755;28;20202;-50
2023/09/27 02:58:57;;;;;;;26.90;22.77;;;12.60;99.90;;;;;;5008248;28;20223;-50
2023/09/27 03:01:23;;;;;;;28.77;23.10;;;12.60;99.90;;;;;;5008444;28;20276;-50
2023/09/27 03:03:51;;;;;;;28.03;23.70;;;12.60;99.90;;;;;;5005947;28;20277;-50
2023/09/27 03:06:16;;;;;;;31.47;24.17;;;12.60;99.90;;;;;;5008550;28;20485;-49
2023/09/27 03:08:45;;;;;;;29.63;25.10;;;12.50;99.90;;;;;;5010260;28;20453;-50
2023/09/27 03:11:12;;;;;;;28.90;23.83;;;12.50;99.90;;;;;;5003265;28;20202;-50
2023/09/27 03:13:37;;;;;;;30.70;24.63;;;12.50;99.90;;;;;;5007071;28;20448;-52
2023/09/27 03:16:04;;;;;;;35.53;25.07;;;12.60;99.90;;;;;;5006196;28;20443;-49
2023/09/27 03:18:31;;;;;;;32.63;26.33;;;12.50;99.90;;;;;;5003773;28;20891;-49
2023/09/27 03:20:57;;;;;;;30.30;24.00;;;12.60;99.90;;;;;;5004380;28;20438;-49
2023/09/27 03:23:22;;;;;;;29.00;24.47;;;12.50;99.90;;;;;;5004678;28;20833;-49
2023/09/27 03:25:49;;;;;;;32.73;25.33;;;12.50;99.90;;;;;;5003358;28;20849;-50
2023/09/27 03:28:15;;;;;;;28.80;25.00;;;12.50;99.90;;;;;;5005893;28;20215;-49
2023/09/27 03:30:40;;;;;;;28.80;24.23;;;12.60;99.90;;;;;;5001516;28;20446;-49
2023/09/27 03:33:06;;;;;;;35.00;25.73;;;12.50;99.90;;;;;;5003675;28;20623;-49
2023/09/27 03:35:32;;;;;;;31.43;26.10;;;12.50;99.90;;;;;;5002070;28;20241;-49
2023/09/27 03:37:57;;;;;;;28.13;23.57;;;12.50;99.90;;;;;;5003830;28;20192;-50
2023/09/27 03:40:23;;;;;;;28.10;23.63;;;12.60;99.90;;;;;;5005710;28;21009;-49
2023/09/27 03:42:49;;;;;;;32.03;24.70;;;12.60;99.90;;;;;;5006670;28;20206;-49
2023/09/27 03:45:15;;;;;;;30.77;25.20;;;12.50;99.90;;;;;;5008554;28;20484;-49
2023/09/27 03:47:44;;;;;;;32.23;24.73;;;12.50;99.90;;;;;;5002940;28;21042;-50
2023/09/27 03:50:12;;;;;;;27.70;23.30;;;12.50;99.90;;;;;;5001422;28;20221;-49
2023/09/27 03:52:40;;;;;;;32.33;25.20;;;12.50;99.90;;;;;;5002356;28;21053;-49
2023/09/27 03:55:09;;;;;;;29.37;25.07;;;12.50;99.90;;;;;;4998906;28;20986;-49
2023/09/27 03:57:35;;;;;;;31.73;23.87;;;12.50;99.90;;;;;;5007438;28;20454;-50
2023/09/27 04:00:01;;;;;;;26.50;23.00;;;12.40;99.90;;;;;;5006140;28;20457;-50
2023/09/27 04:02:29;;;;;;;30.37;24.50;;;12.40;99.90;;;;;;5005943;28;20286;-49
2023/09/27 04:04:54;;;;;;;33.77;27.47;;;12.30;99.90;;;;;;5002820;28;20199;-49
2023/09/27 04:07:20;;;;;;;31.97;26.67;;;12.40;99.90;;;;;;4999609;28;21056;-48
2023/09/27 04:09:47;;;;;;;32.30;25.33;;;12.40;99.90;;;;;;5000245;28;20604;-48
2023/09/27 04:12:12;;;;;;;34.27;24.80;;;12.40;99.90;;;;;;5003032;28;20194;-49
2023/09/27 04:14:39;;;;;;;33.70;27.00;;;12.40;99.90;;;;;;5003345;28;20522;-49
2023/09/27 04:17:04;;;;;;;34.93;25.80;;;12.40;99.90;;;;;;5005664;28;20260;-50
2023/09/27 04:19:33;;;;;;;30.60;24.97;;;12.40;99.90;;;;;;5005879;28;20928;-49
2023/09/27 04:21:59;;;;;;;31.50;25.03;;;12.40;99.90;;;;;;5003470;28;20192;-48
2023/09/27 04:24:26;;;;;;;28.10;24.00;;;12.40;99.90;;;;;;5001984;28;20897;-49
2023/09/27 04:26:52;;;;;;;28.80;22.60;;;12.30;99.90;;;;;;5000234;28;20818;-48
2023/09/27 04:29:19;;;;;;;22.73;19.57;;;12.30;99.90;;;;;;4999991;28;20447;-49
2023/09/27 04:31:45;;;;;;;27.57;22.57;;;12.20;99.90;;;;;;5008352;28;20449;-47
2023/09/27 04:34:11;;;;;;;28.23;22.20;;;12.20;99.90;;;;;;5005602;28;20551;-49
2023/09/27 04:36:37;;;;;;;24.87;21.30;;;12.10;99.90;;;;;;5008577;28;20195;-48
2023/09/27 04:39:06;;;;;;;32.83;22.30;;;12.10;99.90;;;;;;5001506;28;20969;-49
2023/09/27 04:41:31;;;;;;;31.73;24.30;;;12.10;99.90;;;;;;4999628;28;20239;-48
2023/09/27 04:43:57;;;;;;;32.70;26.03;;;12.10;99.90;;;;;;5003431;28;20478;-48
2023/09/27 04:46:22;;;;;;;27.23;22.90;;;12.00;99.90;;;;;;4999869;28;20242;-48
2023/09/27 04:48:48;;;;;;;30.90;25.37;;;12.00;99.90;;;;;;5005702;28;20185;-48
2023/09/27 04:51:14;;;;;;;29.93;24.90;;;12.00;99.90;;;;;;5004897;28;20637;-48
2023/09/27 04:53:39;;;;;;;29.53;24.23;;;12.00;99.90;;;;;;5004701;28;20195;-49
2023/09/27 04:56:06;;;;;;;28.23;22.10;;;11.90;99.90;;;;;;4999438;28;20199;-51
2023/09/27 04:58:32;;;;;;;30.77;25.27;;;11.90;99.90;;;;;;5005540;28;20638;-47
2023/09/27 05:00:58;;;;;;;31.00;25.50;;;11.90;99.90;;;;;;5003274;28;20464;-48
2023/09/27 05:03:24;;;;;;;32.93;25.30;;;11.90;99.90;;;;;;4997300;28;20190;-49
2023/09/27 05:05:49;;;;;;;31.20;23.80;;;11.90;99.90;;;;;;5011591;28;20254;-48
2023/09/27 05:08:15;;;;;;;31.03;25.00;;;11.90;99.90;;;;;;5004140;28;20229;-47
2023/09/27 05:10:40;;;;;;;29.30;24.67;;;11.90;99.90;;;;;;5002769;28;20214;-48
2023/09/27 05:13:06;;;;;;;25.23;22.03;;;11.90;99.90;;;;;;4998716;28;20186;-48
2023/09/27 05:15:32;;;;;;;30.67;24.20;;;11.80;99.90;;;;;;4999368;28;20190;-48
2023/09/27 05:17:58;;;;;;;28.57;23.37;;;11.80;99.90;;;;;;5006791;28;20187;-47
2023/09/27 05:20:23;;;;;;;34.80;25.17;;;11.80;99.90;;;;;;5004537;28;20935;-48
2023/09/27 05:22:49;;;;;;;34.37;25.37;;;11.90;99.90;;;;;;5003449;28;20376;-49
2023/09/27 05:25:15;;;;;;;31.73;25.47;;;11.90;99.90;;;;;;4997773;28;20475;-48
2023/09/27 05:27:41;;;;;;;32.57;25.10;;;11.90;99.90;;;;;;4999383;28;20262;-48
2023/09/27 05:30:07;;;;;;;35.87;27.57;;;11.90;99.90;;;;;;4999541;28;20482;-48
2023/09/27 05:32:33;;;;;;;35.37;26.93;;;11.90;99.90;;;;;;5003646;28;20256;-49
2023/09/27 05:34:59;;;;;;;40.70;28.20;;;12.00;99.90;;;;;;5006941;28;20937;-48
2023/09/27 05:37:24;;;;;;;36.20;26.93;;;12.10;99.90;;;;;;5003265;28;20544;-47
2023/09/27 05:39:50;;;;;;;38.83;28.13;;;12.10;99.90;;;;;;5005755;28;20222;-48
2023/09/27 05:42:15;;;;;;;39.10;28.37;;;12.20;99.90;;;;;;4999198;28;20193;-49
2023/09/27 05:44:41;;;;;;;35.93;28.37;;;12.30;99.90;;;;;;5004221;28;20222;-47
2023/09/27 05:47:07;;;;;;;43.60;29.23;;;12.30;99.90;;;;;;5005022;28;20194;-49
2023/09/27 05:49:34;;;;;;;37.40;28.63;;;12.40;99.90;;;;;;5003351;28;20216;-49
2023/09/27 05:51:59;;;;;;;40.30;28.27;;;12.40;99.90;;;;;;5004344;28;20965;-48
2023/09/27 05:54:25;;;;;;;33.90;27.57;;;12.50;99.90;;;;;;5001036;28;20449;-49
2023/09/27 05:56:54;;;;;;;35.67;26.83;;;12.50;99.90;;;;;;5000047;28;20238;-48
2023/09/27 05:59:21;;;;;;;40.50;30.20;;;12.60;99.90;;;;;;5007575;28;20191;-49
2023/09/27 06:01:47;;;;;;;39.93;30.13;;;12.60;99.90;;;;;;5000158;28;20448;-49
2023/09/27 06:04:13;;;;;;;39.87;31.83;;;12.70;99.90;;;;;;5007587;28;20491;-48
2023/09/27 06:06:39;;;;;;;38.87;28.90;;;12.70;99.90;;;;;;5008740;28;20219;-48
2023/09/27 06:09:09;;;;;;;35.10;26.87;;;12.80;99.90;;;;;;5011836;28;20249;-49
2023/09/27 06:11:35;;;;;;;38.80;31.17;;;12.80;99.90;;;;;;5003486;28;20457;-49
2023/09/27 06:14:01;;;;;;;37.83;29.33;;;12.90;99.90;;;;;;5007400;28;20943;-49
2023/09/27 06:16:27;;;;;;;33.83;28.90;;;12.90;99.90;;;;;;5004003;28;20441;-49
2023/09/27 06:18:53;;;;;;;39.57;31.23;;;13.00;99.90;;;;;;5002809;28;20641;-48
2023/09/27 06:21:19;;;;;;;38.67;31.10;;;13.20;99.90;;;;;;5009121;28;20562;-50
2023/09/27 06:23:44;;;;;;;33.50;29.27;;;13.30;99.90;;;;;;5004798;28;20494;-49
2023/09/27 06:26:10;;;;;;;34.77;28.60;;;13.40;99.90;;;;;;5008173;28;20231;-48
2023/09/27 06:28:39;;;;;;;36.30;27.20;;;13.40;99.90;;;;;;5003684;28;20442;-49
2023/09/27 06:31:07;;;;;;;32.90;25.83;;;13.40;99.90;;;;;;5006692;28;20230;-49
2023/09/27 06:33:39;;;;;;;34.00;28.20;;;13.50;99.90;;;;;;5008634;28;20498;-49
2023/09/27 06:36:08;;;;;;;30.90;24.50;;;13.60;99.90;;;;;;5003453;28;20551;-49
2023/09/27 06:38:34;;;;;;;32.27;23.77;;;13.60;99.90;;;;;;5005320;28;20447;-49
2023/09/27 06:41:01;;;;;;;35.50;26.43;;;13.70;99.90;;;;;;5003515;28;20458;-48
2023/09/27 06:43:28;;;;;;;29.27;25.70;;;13.80;99.90;;;;;;4997646;28;20200;-49
2023/09/27 06:45:54;;;;;;;27.53;24.40;;;13.90;99.90;;;;;;5007841;28;20482;-49
2023/09/27 06:48:20;;;;;;;27.33;23.63;;;14.00;99.90;;;;;;5002826;28;20451;-49
2023/09/27 06:50:47;;;;;;;56.03;40.83;;;14.00;99.90;;;;;;5005687;28;20642;-50
2023/09/27 06:53:13;;;;;;;57.53;45.30;;;14.10;99.90;;;;;;5002018;28;20441;-48
2023/09/27 06:55:39;;;;;;;44.23;33.97;;;14.10;99.90;;;;;;5000247;28;20446;-50
2023/09/27 06:58:05;;;;;;;26.60;22.70;;;14.10;99.90;;;;;;5010437;28;20442;-50
2023/09/27 07:00:30;;;;;;;30.60;23.97;;;14.20;99.90;;;;;;5006582;28;20631;-48
2023/09/27 07:02:56;;;;;;;26.03;21.73;;;14.30;99.90;;;;;;5005830;28;20192;-48
2023/09/27 07:05:23;;;;;;;30.00;24.40;;;14.40;99.90;;;;;;5001118;28;20582;-48
2023/09/27 07:07:49;;;;;;;27.63;22.73;;;14.60;99.90;;;;;;5003148;28;20554;-49
2023/09/27 07:10:15;;;;;;;24.37;21.77;;;14.80;99.90;;;;;;5008733;28;20451;-49
2023/09/27 07:12:41;;;;;;;28.77;23.73;;;15.10;99.90;;;;;;5004081;28;20458;-49
2023/09/27 07:15:14;;;;;;;24.87;22.27;;;15.60;99.90;;;;;;5002205;28;20566;-50
2023/09/27 07:17:40;;;;;;;23.50;21.03;;;16.30;99.90;;;;;;5002523;28;20526;-48
2023/09/27 07:20:50;;;;;;;20.57;18.40;;;17.20;99.90;;;;;;5000148;28;20464;-50
2023/09/27 07:22:56;;;;;;;17.10;13.60;;;18.10;99.90;;;;;;5006230;28;20474;-49
2023/09/27 07:25:23;;;;;;;13.00;11.63;;;19.00;99.90;;;;;;5006718;28;20484;-50
2023/09/27 07:27:49;;;;;;;15.00;12.17;;;19.60;1.00;;;;;;5003116;28;20190;-51
2023/09/27 07:30:18;;;;;;;13.70;12.30;;;20.30;99.90;;;;;;5000393;28;20451;-50
2023/09/27 07:32:47;;;;;;;12.63;11.33;;;20.80;1.00;;;;;;5000481;28;20450;-49
2023/09/27 07:35:16;;;;;;;14.47;11.60;;;21.30;1.00;;;;;;5003524;28;20784;-47
2023/09/27 07:37:43;;;;;;;12.73;11.40;;;21.70;1.00;;;;;;5010150;28;20782;-49
2023/09/27 07:40:11;;;;;;;14.33;11.83;;;22.00;1.00;;;;;;5008039;28;20804;-51
2023/09/27 07:42:41;;;;;;;11.50;10.27;;;22.30;1.00;;;;;;5003823;28;20478;-51
2023/09/27 07:45:13;;;;;;;12.77;11.37;;;22.70;1.00;;;;;;4999328;28;20803;-51
2023/09/27 07:47:39;;;;;;;17.97;11.83;;;22.90;1.00;;;;;;5000770;28;20447;-51
2023/09/27 07:50:05;;;;;;;18.30;12.17;;;23.10;1.00;;;;;;4998264;28;20443;-49
2023/09/27 07:52:30;;;;;;;11.90;10.60;;;23.40;1.00;;;;;;5006789;28;20210;-50
2023/09/27 07:54:58;;;;;;;14.10;10.40;;;23.70;1.00;;;;;;5006572;28;20191;-50
2023/09/27 07:57:24;;;;;;;13.57;11.10;;;23.90;1.00;;;;;;5000535;28;20204;-48
2023/09/27 07:59:51;;;;;;;12.37;10.90;;;24.20;1.00;;;;;;5002945;28;20440;-49
2023/09/27 08:02:16;;;;;;;10.17;9.23;;;24.30;1.00;;;;;;5000124;28;20657;-49
2023/09/27 08:04:42;;;;;;;16.33;9.67;;;24.60;1.00;;;;;;4998390;28;20474;-47
2023/09/27 08:07:07;;;;;;;16.90;10.17;;;24.80;1.00;;;;;;5004603;28;20613;-49
2023/09/27 08:09:38;;;;;;;11.43;9.87;;;25.10;1.00;;;;;;5004701;28;20609;-49
2023/09/27 08:12:06;;;;;;;14.53;9.33;;;25.40;1.00;;;;;;5002494;28;20540;-51
2023/09/27 08:14:36;;;;;;;17.80;9.33;;;25.60;1.00;;;;;;5000731;28;20451;-49
2023/09/27 08:17:02;;;;;;;10.43;8.53;;;25.80;1.00;;;;;;5003484;28;20918;-48
2023/09/27 08:19:28;;;;;;;14.00;9.70;;;25.90;1.00;;;;;;4998410;28;21010;-49
2023/09/27 08:21:55;;;;;;;12.70;9.23;;;25.90;1.00;;;;;;5005045;28;20467;-49
2023/09/27 08:24:21;;;;;;;11.37;9.10;;;26.10;1.00;;;;;;5004693;28;20232;-50
2023/09/27 08:26:47;;;;;;;13.20;9.13;;;26.30;1.00;;;;;;5000319;28;20479;-50
2023/09/27 08:29:13;;;;;;;12.87;8.73;;;26.40;1.00;;;;;;5003729;28;20192;-49
2023/09/27 08:31:39;;;;;;;14.27;9.27;;;26.30;1.00;;;;;;5013930;28;20195;-51
2023/09/27 08:34:05;;;;;;;13.97;9.17;;;26.20;1.00;;;;;;5011807;28;20561;-51
2023/09/27 08:36:31;;;;;;;13.43;9.50;;;26.20;1.00;;;;;;4999301;28;20881;-49
2023/09/27 08:38:56;;;;;;;11.43;8.80;;;26.10;1.00;;;;;;5007874;28;20188;-51
2023/09/27 08:41:23;;;;;;;17.60;9.70;;;26.00;1.00;;;;;;5011334;28;20315;-52
2023/09/27 08:43:50;;;;;;;11.87;8.23;;;26.10;1.00;;;;;;4998128;28;20196;-50
2023/09/27 08:46:18;;;;;;;11.83;8.00;;;26.30;99.90;;;;;;5002063;28;20510;-51
2023/09/27 08:48:43;;;;;;;9.60;8.03;;;26.50;1.00;;;;;;5011152;28;20443;-51
2023/09/27 08:51:09;;;;;;;8.80;7.90;;;26.30;99.90;;;;;;5009063;28;20428;-49
2023/09/27 08:53:38;;;;;;;11.27;8.30;;;25.90;99.90;;;;;;5000835;28;20800;-52
2023/09/27 08:56:06;;;;;;;10.93;8.23;;;25.40;99.90;;;;;;5009314;28;20695;-49
2023/09/27 08:58:34;;;;;;;11.23;8.50;;;24.90;1.00;;;;;;5011418;28;20873;-48
2023/09/27 09:01:00;;;;;;;10.97;7.90;;;24.30;1.00;;;;;;5001128;28;20431;-49
2023/09/27 09:03:26;;;;;;;16.83;9.07;;;24.00;1.00;;;;;;5007150;28;20953;-49
2023/09/27 09:05:52;;;;;;;11.67;9.23;;;23.80;1.00;;;;;;5010509;28;20489;-49
2023/09/27 09:08:19;;;;;;;14.90;9.23;;;23.60;1.00;;;;;;4999301;28;20514;-50
2023/09/27 09:10:45;;;;;;;16.23;9.50;;;23.40;1.00;;;;;;5002029;28;20439;-50
2023/09/27 09:13:11;;;;;;;12.17;7.63;;;23.20;1.00;;;;;;5010964;28;20435;-50
2023/09/27 09:15:40;;;;;;;9.43;8.10;;;23.10;1.00;;;;;;5009230;28;20633;-49
2023/09/27 09:18:14;;;;;;;11.13;8.77;;;23.00;1.00;;;;;;5001834;28;20224;-50
2023/09/27 09:20:54;;;;;;;19.23;9.03;;;22.80;1.00;;;;;;5006746;28;20903;-50
2023/09/27 09:23:33;;;;;;;12.10;7.70;;;22.70;1.00;;;;;;5004450;28;20494;-49
2023/09/27 09:26:00;;;;;;;15.10;10.90;;;22.60;1.00;;;;;;5010350;28;20477;-51
2023/09/27 09:28:26;;;;;;;13.43;8.67;;;22.60;1.00;;;;;;4996746;28;20436;-50
2023/09/27 09:30:54;;;;;;;15.37;9.33;;;22.50;1.00;;;;;;5010574;28;20485;-52
2023/09/27 09:33:20;;;;;;;12.47;9.07;;;22.50;1.00;;;;;;5007076;28;20835;-50
2023/09/27 09:35:47;;;;;;;15.80;10.30;;;22.60;1.00;;;;;;4999119;28;20429;-50
2023/09/27 09:38:21;;;;;;;13.57;9.90;;;22.60;1.00;;;;;;5001188;28;20965;-49
2023/09/27 09:41:01;;;;;;;19.83;12.00;;;22.70;1.00;;;;;;5008302;28;20462;-50
2023/09/27 09:43:35;;;;;;;14.27;10.73;;;22.80;1.00;;;;;;5003719;28;20514;-51
2023/09/27 09:46:10;;;;;;;13.93;9.77;;;22.80;1.00;;;;;;4998345;28;20533;-50
2023/09/27 09:48:38;;;;;;;13.40;8.10;;;22.80;1.00;;;;;;5005966;28;20470;-50
2023/09/27 09:51:07;;;;;;;14.10;9.50;;;22.80;1.00;;;;;;4997744;28;20526;-50
2023/09/27 09:53:40;;;;;;;16.77;9.60;;;22.80;1.00;;;;;;4997116;28;20482;-49
2023/09/27 09:56:10;;;;;;;20.53;9.40;;;23.00;1.00;;;;;;5005523;28;20479;-50
2023/09/27 09:58:50;;;;;;;11.93;7.70;;;23.20;1.00;;;;;;4999635;28;20439;-48
2023/09/27 10:01:21;;;;;;;11.33;7.40;;;23.40;1.00;;;;;;5001715;28;20449;-47
2023/09/27 10:03:49;;;;;;;15.70;8.60;;;23.70;1.00;;;;;;5000965;28;20443;-50
2023/09/27 10:06:19;;;;;;;10.60;7.40;;;23.90;1.00;;;;;;4997781;28;20471;-50
2023/09/27 10:08:47;;;;;;;8.83;6.67;;;24.00;1.00;;;;;;5001421;28;20800;-52
2023/09/27 10:11:13;;;;;;;11.83;7.63;;;24.10;99.90;;;;;;5003253;28;20435;-51
2023/09/27 10:13:40;;;;;;;14.30;6.90;;;24.10;99.90;;;;;;4998962;28;20777;-48
2023/09/27 10:16:08;;;;;;;11.70;8.33;;;24.30;1.00;;;;;;4998447;28;20539;-48
2023/09/27 10:18:38;;;;;;;14.23;8.10;;;24.60;99.90;;;;;;5000418;28;20451;-49
2023/09/27 10:21:07;;;;;;;10.80;7.70;;;24.70;1.00;;;;;;4999440;28;20797;-48
2023/09/27 10:23:53;;;;;;;13.40;8.37;;;24.80;99.90;;;;;;5008022;28;20491;-48
2023/09/27 10:26:37;;;;;;;12.90;8.13;;;25.10;99.90;;;;;;5002031;28;20769;-49
2023/09/27 10:29:06;;;;;;;16.20;7.03;;;25.30;99.90;;;;;;5002069;28;20440;-48
2023/09/27 10:31:33;;;;;;;9.60;7.73;;;25.50;99.90;;;;;;4997284;28;20461;-48
2023/09/27 10:33:58;;;;;;;11.60;7.33;;;25.50;99.90;;;;;;5004765;28;20466;-49
2023/09/27 10:36:24;;;;;;;12.97;7.13;;;25.60;99.90;;;;;;5001712;28;20474;-48
2023/09/27 10:38:49;;;;;;;14.73;8.20;;;25.60;99.90;;;;;;4998637;28;20269;-48
2023/09/27 10:41:34;;;;;;;9.17;7.30;;;25.40;99.90;;;;;;4998544;28;20665;-50
2023/09/27 10:44:00;;;;;;;9.60;6.87;;;25.20;99.90;;;;;;4998174;28;20188;-48
2023/09/27 10:46:26;;;;;;;13.33;8.20;;;25.00;1.00;;;;;;4999379;28;20982;-47
2023/09/27 10:48:55;;;;;;;11.73;7.23;;;24.90;99.90;;;;;;5008879;28;20455;-50
2023/09/27 10:51:21;;;;;;;9.40;7.17;;;25.00;99.90;;;;;;5004615;28;20665;-48
2023/09/27 10:53:48;;;;;;;14.17;7.60;;;25.10;1.00;;;;;;5002340;28;20455;-50
2023/09/27 10:56:14;;;;;;;8.70;6.07;;;25.20;99.90;;;;;;5001479;28;20985;-50
2023/09/27 10:58:49;;;;;;;10.50;6.53;;;25.10;99.90;;;;;;5004195;28;20443;-52
2023/09/27 11:01:19;;;;;;;16.93;7.00;;;25.20;1.00;;;;;;5006238;28;20605;-49
2023/09/27 11:03:45;;;;;;;8.33;7.13;;;25.30;99.90;;;;;;5005921;28;20971;-48
2023/09/27 11:06:12;;;;;;;10.60;6.87;;;25.40;1.00;;;;;;5006392;28;20566;-48
2023/09/27 11:08:38;;;;;;;12.73;6.53;;;25.50;1.00;;;;;;4999185;28;20192;-49
2023/09/27 11:11:08;;;;;;;9.03;6.97;;;25.70;1.00;;;;;;5002027;28;20490;-49
2023/09/27 11:13:35;;;;;;;9.93;7.03;;;26.40;99.90;;;;;;5001652;28;20452;-49
2023/09/27 11:16:13;;;;;;;10.00;7.07;;;26.90;99.90;;;;;;5006523;28;20534;-50
2023/09/27 11:18:46;;;;;;;13.77;7.27;;;27.50;99.90;;;;;;5005008;28;20451;-49
2023/09/27 11:21:13;;;;;;;10.53;6.20;;;28.10;99.90;;;;;;5003229;28;20542;-50
2023/09/27 11:23:54;;;;;;;9.67;6.03;;;28.60;99.90;;;;;;5000384;28;20493;-50
2023/09/27 11:26:21;;;;;;;11.80;6.30;;;29.40;99.90;;;;;;5003648;28;20566;-49
2023/09/27 11:29:00;;;;;;;12.83;6.47;;;30.30;99.90;;;;;;5003045;28;20455;-50
2023/09/27 11:31:30;;;;;;;11.53;6.13;;;31.10;99.90;;;;;;5006448;28;20443;-51
2023/09/27 11:34:16;;;;;;;14.40;7.30;;;31.40;99.90;;;;;;5004043;28;20478;-51
2023/09/27 11:36:43;;;;;;;10.80;6.17;;;31.80;99.90;;;;;;5005794;28;20454;-51
2023/09/27 11:39:09;;;;;;;13.63;5.67;;;32.20;99.90;;;;;;5001060;28;20525;-52
2023/09/27 11:41:35;;;;;;;10.20;6.20;;;32.30;99.90;;;;;;5000927;28;20443;-51
2023/09/27 11:44:15;;;;;;;11.73;6.30;;;32.10;99.90;;;;;;4999946;28;20468;-51
2023/09/27 11:46:40;;;;;;;8.17;6.07;;;31.20;99.90;;;;;;5006795;28;20500;-51
2023/09/27 11:49:08;;;;;;;10.90;6.80;;;30.60;99.90;;;;;;5002918;28;20442;-50
2023/09/27 11:51:35;;;;;;;11.20;6.70;;;30.20;99.90;;;;;;5003392;28;20192;-48
2023/09/27 11:54:01;;;;;;;10.00;7.10;;;30.00;99.90;;;;;;5000881;28;20561;-48
2023/09/27 11:56:27;;;;;;;9.47;5.30;;;30.10;99.90;;;;;;4998537;28;20570;-51
2023/09/27 11:58:52;;;;;;;10.90;5.93;;;30.70;99.90;;;;;;4999820;28;21238;-51
2023/09/27 12:01:19;;;;;;;8.47;6.57;;;31.00;99.90;;;;;;5007455;28;20195;-51
2023/09/27 12:03:45;;;;;;;8.20;6.27;;;30.80;99.90;;;;;;5001931;28;20215;-50
2023/09/27 12:06:11;;;;;;;10.30;6.57;;;30.80;99.90;;;;;;5000708;28;20991;-49
2023/09/27 12:08:36;;;;;;;7.50;5.73;;;31.00;99.90;;;;;;5003407;28;20207;-53
2023/09/27 12:11:03;;;;;;;10.60;5.20;;;31.30;99.90;;;;;;5006378;28;20443;-48
2023/09/27 12:13:28;;;;;;;8.40;5.47;;;31.10;99.90;;;;;;5002798;28;20610;-50
2023/09/27 12:15:54;;;;;;;11.67;6.60;;;30.50;99.90;;;;;;5006834;28;20535;-49
2023/09/27 12:18:20;;;;;;;16.10;6.40;;;30.10;99.90;;;;;;5004709;28;20204;-50
2023/09/27 12:20:46;;;;;;;11.13;5.70;;;30.20;99.90;;;;;;4999810;28;20640;-50
2023/09/27 12:23:13;;;;;;;8.53;5.90;;;30.40;99.90;;;;;;5002268;28;20970;-50
2023/09/27 12:25:39;;;;;;;9.80;5.73;;;30.00;99.90;;;;;;5000604;28;20474;-50
2023/09/27 12:28:05;;;;;;;8.40;5.77;;;30.00;99.90;;;;;;5003086;28;20800;-50
2023/09/27 12:30:31;;;;;;;8.27;6.20;;;30.80;99.90;;;;;;5007309;28;20192;-49
2023/09/27 12:32:56;;;;;;;14.67;5.83;;;31.50;99.90;;;;;;5002406;28;20433;-50